createdAt,value
2018-04-28T00:01:58.026Z,20.46
2018-04-28T00:04:23.857Z,20.57
2018-04-28T00:06:49.691Z,20.51
2018-04-28T00:09:15.517Z,20.47
2018-04-28T00:11:41.365Z,20.51
2018-04-28T00:14:08.050Z,20.52
2018-04-28T00:16:39.986Z,20.47
2018-04-28T00:19:05.817Z,20.45
2018-04-28T00:21:31.825Z,20.51
2018-04-28T00:23:57.658Z,20.44
2018-04-28T00:26:23.515Z,20.46
2018-04-28T00:28:50.128Z,20.46
2018-04-28T00:31:16.859Z,20.45
2018-04-28T00:33:42.695Z,20.46
2018-04-28T00:36:12.614Z,20.42
2018-04-28T00:38:41.334Z,20.48
2018-04-28T00:41:07.160Z,20.44
2018-04-28T00:43:32.978Z,20.45
2018-04-28T00:46:10.685Z,20.37
2018-04-28T00:48:40.398Z,20.41
2018-04-28T00:51:06.225Z,20.38
2018-04-28T00:53:32.098Z,20.35
2018-04-28T00:56:01.005Z,20.36
2018-04-28T00:58:27.837Z,20.39
2018-04-28T01:00:54.668Z,20.31
2018-04-28T01:03:23.366Z,20.40
2018-04-28T01:05:50.162Z,20.44
2018-04-28T01:08:16.021Z,20.43
2018-04-28T01:10:41.879Z,20.42
2018-04-28T01:13:07.706Z,20.47
2018-04-28T01:15:34.385Z,20.49
2018-04-28T01:18:00.205Z,20.54
2018-04-28T01:20:28.875Z,20.45
2018-04-28T01:22:54.709Z,20.43
2018-04-28T01:25:21.576Z,20.47
2018-04-28T01:27:50.417Z,20.46
2018-04-28T01:30:19.248Z,20.39
2018-04-28T01:35:41.395Z,20.48
2018-04-28T01:38:25.088Z,20.31
2018-04-28T01:40:52.096Z,20.27
2018-04-28T01:43:30.633Z,20.33
2018-04-28T01:46:02.550Z,20.42
2018-04-28T01:48:35.359Z,20.43
2018-04-28T01:51:10.916Z,20.36
2018-04-28T01:53:37.617Z,20.38
2018-04-28T01:56:04.465Z,20.44
2018-04-28T01:58:34.229Z,20.43
2018-04-28T02:01:15.223Z,20.46
2018-04-28T02:03:41.050Z,20.35
2018-04-28T02:06:08.824Z,20.39
2018-04-28T02:08:34.685Z,20.49
2018-04-28T02:11:00.509Z,20.38
2018-04-28T02:13:27.148Z,20.44
2018-04-28T02:15:52.989Z,20.43
2018-04-28T02:21:16.966Z,20.43
2018-04-28T02:23:43.733Z,20.35
2018-04-28T02:26:24.497Z,20.39
2018-04-28T02:28:51.241Z,20.39
2018-04-28T02:34:15.538Z,20.40
2018-04-28T02:36:42.376Z,20.35
2018-04-28T02:39:10.070Z,20.39
2018-04-28T02:41:37.853Z,20.34
2018-04-28T02:44:03.682Z,20.39
2018-04-28T02:46:31.590Z,20.38
2018-04-28T02:48:57.417Z,20.39
2018-04-28T02:54:20.716Z,20.30
2018-04-28T02:56:50.474Z,20.28
2018-04-28T02:59:22.447Z,20.30
2018-04-28T03:01:49.249Z,20.33
2018-04-28T03:04:15.974Z,20.36
2018-04-28T03:06:43.741Z,20.42
2018-04-28T03:09:10.545Z,20.47
2018-04-28T03:11:36.393Z,20.36
2018-04-28T03:14:03.085Z,20.31
2018-04-28T03:16:28.905Z,20.28
2018-04-28T03:18:55.571Z,20.28
2018-04-28T03:21:21.400Z,20.31
2018-04-28T03:23:50.027Z,20.41
2018-04-28T03:26:16.775Z,20.40
2018-04-28T03:28:42.633Z,20.36
2018-04-28T03:31:14.449Z,20.40
2018-04-28T03:33:44.338Z,20.28
2018-04-28T03:36:16.085Z,20.29
2018-04-28T03:38:41.904Z,20.33
2018-04-28T03:41:08.772Z,20.34
2018-04-28T03:43:34.596Z,20.37
2018-04-28T03:46:15.360Z,20.37
2018-04-28T03:48:46.090Z,20.42
2018-04-28T03:51:11.930Z,20.35
2018-04-28T03:53:40.734Z,20.38
2018-04-28T03:56:06.580Z,20.37
2018-04-28T03:58:38.330Z,20.35
2018-04-28T04:01:10.141Z,20.36
2018-04-28T04:03:41.986Z,20.37
2018-04-28T04:06:07.813Z,20.35
2018-04-28T04:08:39.870Z,20.43
2018-04-28T04:11:11.940Z,20.40
2018-04-28T04:13:39.758Z,20.39
2018-04-28T04:16:08.418Z,20.39
2018-04-28T04:21:31.430Z,20.43
2018-04-28T04:24:03.353Z,20.42
2018-04-28T04:26:29.236Z,20.43
2018-04-28T04:29:10.010Z,20.50
2018-04-28T04:31:36.809Z,20.42
2018-04-28T04:34:02.677Z,20.40
2018-04-28T04:36:44.453Z,20.43
2018-04-28T04:39:14.257Z,20.46
2018-04-28T04:41:45.077Z,20.50
2018-04-28T04:44:11.805Z,20.45
2018-04-28T04:46:43.676Z,20.46
2018-04-28T04:49:15.589Z,20.50
2018-04-28T04:51:46.425Z,20.51
2018-04-28T04:54:13.163Z,20.44
2018-04-28T04:56:45.110Z,20.42
2018-04-28T05:02:10.873Z,20.46
2018-04-28T05:04:42.850Z,20.46
2018-04-28T05:07:10.789Z,20.46
2018-04-28T05:12:27.978Z,20.42
2018-04-28T05:15:11.805Z,20.43
2018-04-28T05:17:43.508Z,20.42
2018-04-28T05:20:15.569Z,20.49
2018-04-28T05:22:47.640Z,20.40
2018-04-28T05:25:19.719Z,20.41
2018-04-28T05:27:48.527Z,20.45
2018-04-28T05:30:20.437Z,20.51
2018-04-28T05:32:52.505Z,20.43
2018-04-28T05:35:22.369Z,20.47
2018-04-28T05:40:40.354Z,20.57
2018-04-28T05:43:11.040Z,20.42
2018-04-28T05:45:43.063Z,20.50
2018-04-28T05:51:14.948Z,20.46
2018-04-28T05:56:40.140Z,20.43
2018-04-28T05:59:16.937Z,20.47
2018-04-28T06:01:42.765Z,20.44
2018-04-28T06:04:17.488Z,20.50
2018-04-28T06:09:39.397Z,20.59
2018-04-28T06:12:25.274Z,20.61
2018-04-28T06:18:06.278Z,20.36
2018-04-28T06:20:36.024Z,20.44
2018-04-28T06:23:01.844Z,20.49
2018-04-28T06:25:27.676Z,20.53
2018-04-28T06:27:53.490Z,20.62
2018-04-28T06:30:19.305Z,20.68
2018-04-28T06:32:45.124Z,20.66
2018-04-28T06:35:10.938Z,20.59
2018-04-28T06:37:36.798Z,20.62
2018-04-28T06:40:02.808Z,20.56
2018-04-28T06:42:28.695Z,20.63
2018-04-28T06:44:54.589Z,20.57
2018-04-28T06:47:20.401Z,20.55
2018-04-28T06:49:46.220Z,20.72
2018-04-28T06:52:12.037Z,20.60
2018-04-28T06:54:37.848Z,20.73
2018-04-28T06:57:03.678Z,20.81
2018-04-28T06:59:29.500Z,20.72
2018-04-28T07:01:55.313Z,20.87
2018-04-28T07:04:21.133Z,20.85
2018-04-28T07:06:46.944Z,20.79
2018-04-28T07:09:12.964Z,20.94
2018-04-28T07:11:38.813Z,20.87
2018-04-28T07:14:04.620Z,20.96
2018-04-28T07:16:30.432Z,21.05
2018-04-28T07:18:56.237Z,21.14
2018-04-28T07:21:22.274Z,21.19
2018-04-28T07:23:48.109Z,21.17
2018-04-28T07:26:13.964Z,21.18
2018-04-28T07:28:40.377Z,21.12
2018-04-28T07:31:06.188Z,21.16
2018-04-28T07:33:32.009Z,21.08
2018-04-28T07:35:57.849Z,21.09
2018-04-28T07:38:23.689Z,21.00
2018-04-28T07:40:49.526Z,20.98
2018-04-28T07:43:15.368Z,21.07
2018-04-28T07:45:41.194Z,21.13
2018-04-28T07:48:07.065Z,21.20
2018-04-28T07:50:32.873Z,21.33
2018-04-28T07:52:58.712Z,21.41
2018-04-28T07:55:24.522Z,21.46
2018-04-28T07:57:50.368Z,21.46
2018-04-28T08:00:16.394Z,21.47
2018-04-28T08:02:42.261Z,21.45
2018-04-28T08:05:08.077Z,21.43
2018-04-28T08:07:34.078Z,21.43
2018-04-28T08:09:59.926Z,21.45
2018-04-28T08:12:25.740Z,21.44
2018-04-28T08:14:51.660Z,21.40
2018-04-28T08:17:17.476Z,21.42
2018-04-28T08:19:43.461Z,21.36
2018-04-28T08:22:09.284Z,21.36
2018-04-28T08:24:35.096Z,21.41
2018-04-28T08:27:00.925Z,21.42
2018-04-28T08:29:26.761Z,21.34
2018-04-28T08:31:52.573Z,21.36
2018-04-28T08:34:18.389Z,21.35
2018-04-28T08:36:44.211Z,21.32
2018-04-28T08:39:10.040Z,21.33
2018-04-28T08:41:35.900Z,21.33
2018-04-28T08:44:01.746Z,21.30
2018-04-28T08:46:27.592Z,21.34
2018-04-28T08:48:53.425Z,21.30
2018-04-28T08:51:19.238Z,21.29
2018-04-28T08:53:45.049Z,21.30
2018-04-28T08:56:10.868Z,21.32
2018-04-28T08:58:36.761Z,21.27
2018-04-28T09:01:02.585Z,21.26
2018-04-28T09:03:28.389Z,21.25
2018-04-28T09:05:54.190Z,21.25
2018-04-28T09:08:20.110Z,21.20
2018-04-28T09:10:45.914Z,21.23
2018-04-28T09:13:11.753Z,21.18
2018-04-28T09:15:37.553Z,21.22
2018-04-28T09:18:03.367Z,21.19
2018-04-28T09:20:29.173Z,21.20
2018-04-28T09:22:54.981Z,21.23
2018-04-28T09:25:20.793Z,21.21
2018-04-28T09:27:46.605Z,21.22
2018-04-28T09:30:12.415Z,21.21
2018-04-28T09:32:38.412Z,21.23
2018-04-28T09:35:04.258Z,21.22
2018-04-28T09:37:30.185Z,21.21
2018-04-28T09:39:56.110Z,21.17
2018-04-28T09:42:21.897Z,21.21
2018-04-28T09:44:47.707Z,21.19
2018-04-28T09:47:13.525Z,21.20
2018-04-28T09:49:39.342Z,21.20
2018-04-28T09:52:05.148Z,21.19
2018-04-28T09:54:30.949Z,21.20
2018-04-28T09:56:56.760Z,21.22
2018-04-28T09:59:22.577Z,21.17
2018-04-28T10:01:48.401Z,21.07
2018-04-28T10:04:21.603Z,21.14
2018-04-28T10:06:47.572Z,21.13
2018-04-28T10:09:13.388Z,21.08
2018-04-28T10:11:39.210Z,21.09
2018-04-28T10:14:05.033Z,21.13
2018-04-28T10:16:30.877Z,21.10
2018-04-28T10:18:56.687Z,21.14
2018-04-28T10:21:22.503Z,21.16
2018-04-28T10:23:48.319Z,21.14
2018-04-28T10:26:14.265Z,21.11
2018-04-28T10:28:40.151Z,21.09
2018-04-28T10:31:06.121Z,21.13
2018-04-28T10:33:34.589Z,21.20
2018-04-28T10:36:01.464Z,21.18
2018-04-28T10:38:27.500Z,21.19
2018-04-28T10:40:53.301Z,21.23
2018-04-28T10:43:19.133Z,21.20
2018-04-28T10:45:44.949Z,21.22
2018-04-28T10:48:10.757Z,21.23
2018-04-28T10:50:36.569Z,21.23
2018-04-28T10:53:02.380Z,21.21
2018-04-28T10:55:28.190Z,21.26
2018-04-28T10:57:54.001Z,21.23
2018-04-28T11:00:19.835Z,21.24
2018-04-28T11:02:45.645Z,21.20
2018-04-28T11:05:11.450Z,21.25
2018-04-28T11:07:37.277Z,21.24
2018-04-28T11:10:03.116Z,21.26
2018-04-28T11:12:28.925Z,21.43
2018-04-28T11:14:54.728Z,21.42
2018-04-28T11:17:20.569Z,21.42
2018-04-28T11:19:46.591Z,21.41
2018-04-28T11:22:12.369Z,21.38
2018-04-28T11:24:38.177Z,21.38
2018-04-28T11:27:03.985Z,21.32
2018-04-28T11:29:29.801Z,21.35
2018-04-28T11:31:55.605Z,21.29
2018-04-28T11:34:21.478Z,21.29
2018-04-28T11:36:47.317Z,21.27
2018-04-28T11:39:13.177Z,21.22
2018-04-28T11:41:38.997Z,21.30
2018-04-28T11:44:04.849Z,21.33
2018-04-28T11:46:30.685Z,21.28
2018-04-28T11:48:56.493Z,21.20
2018-04-28T11:51:22.316Z,21.24
2018-04-28T11:53:48.181Z,21.20
2018-04-28T11:56:14.021Z,21.11
2018-04-28T11:58:39.824Z,21.19
2018-04-28T12:01:05.633Z,21.12
2018-04-28T12:03:31.445Z,21.18
2018-04-28T12:05:57.260Z,21.24
2018-04-28T12:08:23.064Z,21.20
2018-04-28T12:10:48.869Z,21.14
2018-04-28T12:13:14.678Z,21.05
2018-04-28T12:15:40.512Z,21.20
2018-04-28T12:18:06.317Z,21.22
2018-04-28T12:20:32.124Z,21.16
2018-04-28T12:23:00.037Z,21.19
2018-04-28T12:25:25.860Z,21.12
2018-04-28T12:27:51.710Z,21.14
2018-04-28T12:30:17.521Z,21.21
2018-04-28T12:32:43.333Z,21.12
2018-04-28T12:35:09.170Z,21.23
2018-04-28T12:37:35.026Z,21.13
2018-04-28T12:40:00.837Z,21.11
2018-04-28T12:42:26.649Z,21.23
2018-04-28T12:44:52.460Z,21.09
2018-04-28T12:47:18.489Z,21.00
2018-04-28T12:49:44.313Z,21.06
2018-04-28T12:52:10.318Z,21.20
2018-04-28T12:54:36.150Z,21.19
2018-04-28T12:57:02.033Z,21.14
2018-04-28T12:59:28.451Z,21.11
2018-04-28T13:01:54.289Z,21.06
2018-04-28T13:04:20.108Z,21.16
2018-04-28T13:06:45.951Z,21.11
2018-04-28T13:09:11.801Z,21.22
2018-04-28T13:11:37.649Z,21.07
2018-04-28T13:14:03.458Z,21.19
2018-04-28T13:16:29.268Z,21.16
2018-04-28T13:18:55.105Z,21.06
2018-04-28T13:21:20.917Z,21.06
2018-04-28T13:23:46.770Z,21.07
2018-04-28T13:26:12.581Z,21.05
2018-04-28T13:28:38.487Z,21.11
2018-04-28T13:31:04.271Z,21.10
2018-04-28T13:33:30.081Z,21.02
2018-04-28T13:35:55.916Z,21.09
2018-04-28T13:38:21.723Z,21.07
2018-04-28T13:40:47.540Z,21.07
2018-04-28T13:43:14.302Z,21.10
2018-04-28T13:45:40.146Z,21.13
2018-04-28T13:48:05.985Z,21.06
2018-04-28T13:50:31.837Z,20.99
2018-04-28T13:52:57.644Z,21.09
2018-04-28T13:55:23.594Z,21.06
2018-04-28T13:57:49.412Z,21.08
2018-04-28T14:00:15.217Z,21.01
2018-04-28T14:02:41.031Z,21.00
2018-04-28T14:05:06.930Z,20.94
2018-04-28T14:07:32.745Z,21.09
2018-04-28T14:09:58.670Z,21.06
2018-04-28T14:12:24.479Z,21.06
2018-04-28T14:14:50.289Z,20.96
2018-04-28T14:17:16.124Z,20.97
2018-04-28T14:19:41.937Z,20.98
2018-04-28T14:22:07.773Z,21.03
2018-04-28T14:24:34.185Z,21.04
2018-04-28T14:27:00.019Z,20.99
2018-04-28T14:29:25.861Z,21.02
2018-04-28T14:31:51.668Z,20.98
2018-04-28T14:34:17.481Z,21.00
2018-04-28T14:36:43.285Z,21.04
2018-04-28T14:39:09.125Z,21.08
2018-04-28T14:41:34.971Z,21.18
2018-04-28T14:44:00.789Z,21.16
2018-04-28T14:46:26.601Z,21.18
2018-04-28T14:48:52.418Z,21.13
2018-04-28T14:51:18.228Z,21.14
2018-04-28T14:53:44.041Z,21.18
2018-04-28T14:56:09.853Z,21.18
2018-04-28T14:58:35.863Z,21.10
2018-04-28T15:01:01.673Z,21.17
2018-04-28T15:03:27.487Z,21.13
2018-04-28T15:05:53.480Z,21.14
2018-04-28T15:08:19.308Z,21.10
2018-04-28T15:10:45.222Z,21.14
2018-04-28T15:13:11.036Z,20.99
2018-04-28T15:15:36.860Z,21.13
2018-04-28T15:18:02.670Z,21.17
2018-04-28T15:20:28.599Z,21.16
2018-04-28T15:22:54.510Z,21.09
2018-04-28T15:25:20.377Z,21.12
2018-04-28T15:27:46.300Z,21.06
2018-04-28T15:30:12.109Z,21.11
2018-04-28T15:32:37.942Z,21.12
2018-04-28T15:35:03.831Z,21.09
2018-04-28T15:37:29.649Z,21.13
2018-04-28T15:39:55.464Z,21.05
2018-04-28T15:42:21.289Z,21.04
2018-04-28T15:44:47.108Z,21.06
2018-04-28T15:47:12.917Z,21.17
2018-04-28T15:49:38.770Z,21.15
2018-04-28T15:52:04.584Z,21.10
2018-04-28T15:54:30.525Z,21.08
2018-04-28T15:56:56.538Z,21.02
2018-04-28T15:59:22.345Z,21.12
2018-04-28T16:01:48.193Z,21.04
2018-04-28T16:04:14.013Z,21.05
2018-04-28T16:06:39.825Z,20.93
2018-04-28T16:09:05.789Z,21.27
2018-04-28T16:11:31.609Z,21.23
2018-04-28T16:13:58.129Z,21.15
2018-04-28T16:16:24.595Z,21.09
2018-04-28T16:18:50.408Z,21.10
2018-04-28T16:21:16.217Z,21.07
2018-04-28T16:23:42.021Z,21.09
2018-04-28T16:26:07.832Z,21.07
2018-04-28T16:28:33.649Z,21.00
2018-04-28T16:30:59.462Z,21.17
2018-04-28T16:33:25.285Z,21.14
2018-04-28T16:35:51.112Z,21.12
2018-04-28T16:38:16.940Z,21.10
2018-04-28T16:40:42.781Z,21.26
2018-04-28T16:43:08.732Z,21.40
2018-04-28T16:45:34.721Z,21.48
2018-04-28T16:48:00.529Z,21.52
2018-04-28T16:50:26.361Z,21.59
2018-04-28T16:52:52.208Z,21.62
2018-04-28T16:55:18.017Z,21.67
2018-04-28T16:57:43.897Z,21.72
2018-04-28T17:02:55.068Z,21.60
2018-04-28T17:05:20.872Z,21.69
2018-04-28T17:07:46.680Z,21.76
2018-04-28T17:10:14.245Z,21.82
2018-04-28T17:12:40.042Z,21.78
2018-04-28T17:15:05.893Z,21.82
2018-04-28T17:17:37.962Z,21.83
2018-04-28T17:20:03.772Z,21.77
2018-04-28T17:22:29.637Z,21.81
2018-04-28T17:24:55.543Z,21.81
2018-04-28T17:27:21.313Z,21.81
2018-04-28T17:29:47.129Z,21.81
2018-04-28T17:32:12.963Z,21.78
2018-04-28T17:34:38.777Z,21.76
2018-04-28T17:37:04.623Z,21.75
2018-04-28T17:39:30.438Z,21.71
2018-04-28T17:41:56.270Z,21.69
2018-04-28T17:44:22.352Z,21.63
2018-04-28T17:46:48.167Z,21.64
2018-04-28T17:49:14.019Z,21.62
2018-04-28T17:51:39.828Z,21.60
2018-04-28T17:54:05.647Z,21.56
2018-04-28T17:56:31.486Z,21.55
2018-04-28T17:58:57.330Z,21.55
2018-04-28T18:01:23.153Z,21.55
2018-04-28T18:03:48.992Z,21.53
2018-04-28T18:06:14.811Z,21.51
2018-04-28T18:08:40.815Z,21.50
2018-04-28T18:11:06.773Z,21.48
2018-04-28T18:13:32.588Z,21.17
2018-04-28T18:15:58.429Z,21.49
2018-04-28T18:18:24.505Z,21.52
2018-04-28T18:20:50.316Z,21.48
2018-04-28T18:23:16.189Z,21.46
2018-04-28T18:25:42.167Z,21.47
2018-04-28T18:28:08.308Z,21.57
2018-04-28T18:30:34.129Z,21.68
2018-04-28T18:33:00.060Z,21.67
2018-04-28T18:35:25.961Z,21.64
2018-04-28T18:37:51.787Z,21.64
2018-04-28T18:40:17.603Z,21.63
2018-04-28T18:42:43.414Z,21.59
2018-04-28T18:45:09.234Z,21.60
2018-04-28T18:47:35.052Z,21.59
2018-04-28T18:50:00.897Z,21.57
2018-04-28T18:52:26.932Z,21.56
2018-04-28T18:54:52.826Z,21.57
2018-04-28T18:57:19.625Z,21.58
2018-04-28T18:59:45.560Z,21.53
2018-04-28T19:02:11.385Z,21.57
2018-04-28T19:04:37.192Z,21.54
2018-04-28T19:07:03.085Z,21.51
2018-04-28T19:09:28.927Z,21.50
2018-04-28T19:11:54.793Z,21.50
2018-04-28T19:14:22.354Z,21.50
2018-04-28T19:16:49.299Z,21.49
2018-04-28T19:19:16.454Z,21.49
2018-04-28T19:21:42.422Z,21.48
2018-04-28T19:24:08.238Z,21.50
2018-04-28T19:26:34.061Z,21.50
2018-04-28T19:28:59.880Z,21.51
2018-04-28T19:31:25.786Z,21.49
2018-04-28T19:33:51.790Z,21.45
2018-04-28T19:36:17.708Z,21.44
2018-04-28T19:38:43.688Z,21.44
2018-04-28T19:41:09.728Z,21.44
2018-04-28T19:43:35.693Z,21.44
2018-04-28T19:46:01.611Z,21.45
2018-04-28T19:48:27.556Z,21.46
2018-04-28T19:50:53.469Z,21.45
2018-04-28T19:53:19.569Z,21.43
2018-04-28T19:55:45.898Z,21.40
2018-04-28T19:58:12.102Z,21.36
2018-04-28T20:00:38.132Z,21.35
2018-04-28T20:03:04.242Z,21.38
2018-04-28T20:05:30.240Z,21.37
2018-04-28T20:07:56.167Z,21.36
2018-04-28T20:10:23.199Z,21.35
2018-04-28T20:12:49.417Z,21.33
2018-04-28T20:15:15.249Z,21.38
2018-04-28T20:17:41.129Z,21.36
2018-04-28T20:20:07.064Z,21.37
2018-04-28T20:22:39.072Z,21.36
2018-04-28T20:25:11.002Z,21.24
2018-04-28T20:27:36.819Z,21.25
2018-04-28T20:30:02.671Z,21.28
2018-04-28T20:32:30.519Z,21.29
2018-04-28T20:34:56.436Z,21.25
2018-04-28T20:37:22.242Z,21.21
2018-04-28T20:39:48.055Z,21.24
2018-04-28T20:42:22.131Z,21.26
2018-04-28T20:44:59.855Z,21.20
2018-04-28T20:47:29.793Z,21.12
2018-04-28T20:49:55.608Z,21.13
2018-04-28T20:52:21.443Z,21.15
2018-04-28T20:54:47.321Z,21.21
2018-04-28T20:57:15.400Z,21.21
2018-04-28T20:59:41.402Z,21.19
2018-04-28T21:02:07.250Z,21.19
2018-04-28T21:04:33.209Z,21.19
2018-04-28T21:06:59.042Z,21.19
2018-04-28T21:09:24.865Z,21.14
2018-04-28T21:11:50.709Z,21.16
2018-04-28T21:14:16.688Z,21.14
2018-04-28T21:16:42.517Z,21.15
2018-04-28T21:19:08.953Z,21.17
2018-04-28T21:21:34.802Z,21.15
2018-04-28T21:24:00.672Z,21.07
2018-04-28T21:26:26.493Z,21.13
2018-04-28T21:28:52.384Z,21.17
2018-04-28T21:31:18.224Z,21.07
2018-04-28T21:33:44.061Z,21.12
2018-04-28T21:36:09.872Z,21.09
2018-04-28T21:38:35.693Z,21.09
2018-04-28T21:41:01.501Z,21.07
2018-04-28T21:43:27.306Z,21.09
2018-04-28T21:45:53.319Z,21.08
2018-04-28T21:48:19.254Z,21.08
2018-04-28T21:50:45.114Z,21.08
2018-04-28T21:53:11.032Z,21.07
2018-04-28T21:55:36.944Z,21.07
2018-04-28T21:58:02.942Z,21.09
2018-04-28T22:00:28.753Z,21.08
2018-04-28T22:02:54.561Z,20.96
2018-04-28T22:05:20.360Z,20.95
2018-04-28T22:07:46.530Z,20.87
2018-04-28T22:10:12.484Z,20.94
2018-04-28T22:12:38.401Z,20.96
2018-04-28T22:15:04.357Z,21.02
2018-04-28T22:17:30.161Z,20.95
2018-04-28T22:19:56.176Z,20.90
2018-04-28T22:22:21.984Z,20.97
2018-04-28T22:24:47.812Z,20.92
2018-04-28T22:27:13.624Z,21.02
2018-04-28T22:29:39.428Z,20.91
2018-04-28T22:32:05.265Z,20.95
2018-04-28T22:34:31.233Z,20.89
2018-04-28T22:36:57.041Z,20.88
2018-04-28T22:39:22.852Z,20.90
2018-04-28T22:41:48.657Z,20.86
2018-04-28T22:44:14.465Z,20.90
2018-04-28T22:46:40.269Z,20.91
2018-04-28T22:49:06.086Z,20.89
2018-04-28T22:51:31.884Z,20.84
2018-04-28T22:53:57.689Z,20.87
2018-04-28T22:56:23.524Z,20.90
2018-04-28T22:58:49.911Z,20.88
2018-04-28T23:01:15.748Z,20.86
2018-04-28T23:03:41.584Z,20.83
2018-04-28T23:06:07.408Z,20.87
2018-04-28T23:08:33.228Z,20.95
2018-04-28T23:10:59.031Z,20.96
2018-04-28T23:13:24.895Z,20.87
2018-04-28T23:15:50.725Z,20.93
2018-04-28T23:18:16.536Z,20.82
2018-04-28T23:20:42.374Z,20.87
2018-04-28T23:23:08.178Z,20.82
2018-04-28T23:25:34.017Z,20.89
2018-04-28T23:27:59.817Z,20.82
2018-04-28T23:30:25.760Z,20.86
2018-04-28T23:32:51.689Z,20.80
2018-04-28T23:35:17.494Z,20.81
2018-04-28T23:37:43.296Z,20.76
2018-04-28T23:40:09.135Z,20.83
2018-04-28T23:42:34.943Z,20.80
2018-04-28T23:45:01.369Z,20.79
2018-04-28T23:47:27.178Z,20.83
2018-04-28T23:49:52.991Z,20.83
2018-04-28T23:52:18.821Z,20.74
2018-04-28T23:54:44.655Z,20.78
2018-04-28T23:57:10.505Z,20.75
2018-04-28T23:59:36.314Z,20.75
